»·PEaware :: N42TX KGJT-KTUS

N42TX :: KGJT-KTUS

FLIGHT INFORMATION

Flight Status: Arrived
Operator: Privately registered:
United States
More flights under this callsign
Pilot: Anonymous 14085 (14085)
Aircraft: BEECH AIRCRAFT SUPER KING AIR 350
(B350)
More flights by this aircraft type
Origin: KGJT Grand Junction Regl
United States
Destination: KTUS Tucson Intl
United States
More flights between these airports :: More routes between these airports
Route: +JNC7 JNC V187 RSK V95 PXR V16 PIMMA
File this flight plan on PilotEdge
Remarks: RMK / SIMBRIEF
Altitude:
(Current/Filed)
26,000ft
Speed:
(Current/Filed)
311kts
Departed: 08-Aug-20 12:11 PM
Arrived: 08-Aug-20 02:10 PM
Distance/Time
Traveled:
436nm/1:59
Distance/Time
To Go:
Arrived

Flight Plot

Page will automatically refresh every two minutes.

Flight plan parsing failed; only flown route is shown


Map Options




Map Legend


Flown Route
Filed Route
Departure Airport
Arrival Airport
Navaid (VOR, NDB)
Fix

Horizontal Profiles

Position Reports

Time Latitude Longitude Heading Altitude Ground
Speed
08-Aug-20 11:20 39.121661 -108.523639 123 4866ft 0kts
08-Aug-20 11:20 39.121661 -108.523639 123 4866ft 0kts
08-Aug-20 11:21 39.121661 -108.523639 123 4866ft 0kts
08-Aug-20 11:22 39.121661 -108.523639 123 4866ft 0kts
08-Aug-20 11:23 39.121661 -108.523639 123 4866ft 0kts
08-Aug-20 11:24 39.121661 -108.523639 123 4866ft 0kts
08-Aug-20 11:25 39.121661 -108.523639 123 4866ft 0kts
08-Aug-20 11:26 39.121661 -108.523639 123 4866ft 0kts
08-Aug-20 11:27 39.121661 -108.523639 123 4866ft 0kts
08-Aug-20 11:28 39.121661 -108.523639 123 4866ft 0kts
08-Aug-20 11:29 39.121661 -108.523639 123 4866ft 0kts
08-Aug-20 11:30 39.121661 -108.523639 123 4866ft 0kts
08-Aug-20 11:31 39.121661 -108.523639 123 4866ft 0kts
08-Aug-20 11:32 39.121661 -108.523639 123 4866ft 0kts
08-Aug-20 11:33 39.121661 -108.523639 123 4866ft 0kts
08-Aug-20 11:34 39.121661 -108.523639 123 4866ft 0kts
08-Aug-20 11:35 39.121661 -108.523639 123 4866ft 0kts
08-Aug-20 11:36 39.121661 -108.523639 123 4866ft 0kts
08-Aug-20 11:37 39.121661 -108.523639 123 4866ft 0kts
08-Aug-20 11:38 39.121661 -108.523639 123 4866ft 0kts
08-Aug-20 11:39 39.121661 -108.523639 123 4866ft 0kts
08-Aug-20 11:40 39.121661 -108.523639 123 4866ft 0kts
08-Aug-20 11:41 39.121661 -108.523639 123 4866ft 0kts
08-Aug-20 11:42 39.121661 -108.523639 123 4866ft 0kts
08-Aug-20 11:43 39.121661 -108.523639 123 4866ft 0kts
08-Aug-20 11:44 39.121661 -108.523639 123 4866ft 0kts
08-Aug-20 11:45 39.121661 -108.523639 123 4866ft 0kts
08-Aug-20 11:46 39.121661 -108.523639 123 4866ft 0kts
08-Aug-20 11:47 39.121661 -108.523639 123 4866ft 0kts
08-Aug-20 11:48 39.121661 -108.523639 123 4866ft 0kts
08-Aug-20 11:49 39.121661 -108.523639 123 4866ft 0kts
08-Aug-20 11:50 39.121661 -108.523639 123 4866ft 0kts
08-Aug-20 11:51 39.121661 -108.523639 123 4866ft 0kts
08-Aug-20 11:54 39.121789 -108.523882 124 4866ft 0kts
08-Aug-20 11:55 39.121789 -108.523882 124 4866ft 0kts
08-Aug-20 11:56 39.121789 -108.523882 124 4866ft 0kts
08-Aug-20 11:57 39.121789 -108.523882 124 4866ft 0kts
08-Aug-20 11:58 39.121789 -108.523882 124 4866ft 0kts
08-Aug-20 11:59 39.121789 -108.523882 124 4866ft 0kts
08-Aug-20 12:00 39.121789 -108.523882 124 4866ft 0kts
08-Aug-20 12:01 39.121789 -108.523882 124 4866ft 0kts
08-Aug-20 12:02 39.121789 -108.523882 124 4866ft 0kts
08-Aug-20 12:03 39.121789 -108.523882 124 4866ft 0kts
08-Aug-20 12:04 39.121562 -108.522894 98 4866ft 9kts
08-Aug-20 12:05 39.119828 -108.519214 125 4866ft 15kts
08-Aug-20 12:06 39.118620 -108.517009 121 4866ft 2kts
08-Aug-20 12:07 39.118552 -108.516878 129 4866ft 0kts
08-Aug-20 12:08 39.118552 -108.516878 129 4866ft 0kts
08-Aug-20 12:09 39.118007 -108.515295 56 4866ft 11kts
08-Aug-20 12:10 39.125875 -108.527761 305 4868ft 129kts
08-Aug-20 12:11 39.148987 -108.570251 300 6163ft 157kts
08-Aug-20 12:12 39.171933 -108.616542 301 7750ft 165kts
08-Aug-20 12:13 39.200047 -108.670874 301 8690ft 185kts
08-Aug-20 12:14 39.229035 -108.725929 301 9833ft 186kts
08-Aug-20 12:15 39.258689 -108.781264 301 10935ft 188kts
08-Aug-20 12:16 39.252552 -108.833294 199 12007ft 189kts
08-Aug-20 12:17 39.198994 -108.823810 174 13040ft 197kts
08-Aug-20 12:18 39.145132 -108.811625 174 14070ft 198kts
08-Aug-20 12:19 39.091021 -108.799454 174 15163ft 198kts
08-Aug-20 12:20 39.036980 -108.785991 170 16279ft 199kts
08-Aug-20 12:21 38.983426 -108.768842 171 17453ft 199kts
08-Aug-20 12:22 38.930029 -108.752293 171 18739ft 198kts
08-Aug-20 12:23 38.876654 -108.735819 172 20078ft 197kts
08-Aug-20 12:24 38.823467 -108.719433 172 21408ft 197kts
08-Aug-20 12:25 38.770213 -108.703044 173 22706ft 197kts
08-Aug-20 12:26 38.717021 -108.686700 173 23900ft 197kts
08-Aug-20 12:27 38.663931 -108.670414 174 24976ft 197kts
08-Aug-20 12:28 38.605379 -108.652644 172 25013ft 231kts
08-Aug-20 12:29 38.541251 -108.632906 172 25008ft 239kts
08-Aug-20 12:30 38.475989 -108.612950 172 25008ft 245kts
08-Aug-20 12:31 38.409252 -108.592603 172 25008ft 249kts
08-Aug-20 12:32 38.341805 -108.572076 172 25066ft 249kts
08-Aug-20 12:33 38.274601 -108.551638 172 25311ft 242kts
08-Aug-20 12:34 38.209448 -108.531901 172 25475ft 244kts
08-Aug-20 12:35 38.142294 -108.511657 172 25506ft 252kts
08-Aug-20 12:36 38.073164 -108.490805 172 25530ft 258kts
08-Aug-20 12:37 38.002724 -108.469580 172 25542ft 263kts
08-Aug-20 12:38 37.930971 -108.448009 172 25542ft 266kts
08-Aug-20 12:39 37.858713 -108.426358 172 25490ft 270kts
08-Aug-20 12:40 37.785185 -108.404363 172 25425ft 273kts
08-Aug-20 12:41 37.711185 -108.382252 172 25409ft 274kts
08-Aug-20 12:42 37.637245 -108.360204 172 25430ft 273kts
08-Aug-20 12:43 37.563531 -108.338278 172 25424ft 273kts
08-Aug-20 12:44 37.489770 -108.316390 172 25373ft 273kts
08-Aug-20 12:45 37.415772 -108.294472 172 25316ft 274kts
08-Aug-20 12:46 37.341922 -108.272628 172 25316ft 272kts
08-Aug-20 12:47 37.267955 -108.250821 172 25318ft 274kts
08-Aug-20 12:48 37.193394 -108.228888 172 25302ft 277kts
08-Aug-20 12:49 37.132168 -108.265385 227 25287ft 258kts
08-Aug-20 12:50 37.081846 -108.329914 228 25289ft 261kts
08-Aug-20 12:51 37.030828 -108.394710 228 25290ft 264kts
08-Aug-20 12:52 36.978884 -108.460405 229 25285ft 267kts
08-Aug-20 12:53 36.926184 -108.526911 229 25286ft 270kts
08-Aug-20 12:54 36.872931 -108.593964 229 25288ft 272kts
08-Aug-20 12:55 36.819510 -108.661086 228 25288ft 273kts
08-Aug-20 12:56 36.765671 -108.728609 228 25285ft 275kts
08-Aug-20 12:57 36.711681 -108.796166 228 25289ft 276kts
08-Aug-20 12:58 36.657408 -108.863930 228 25287ft 277kts
08-Aug-20 12:59 36.603012 -108.931700 228 25283ft 277kts
08-Aug-20 13:00 36.548766 -108.999143 228 25292ft 276kts
08-Aug-20 13:02 36.494433 -109.066546 227 25317ft 274kts
08-Aug-20 13:03 36.440845 -109.132885 227 25350ft 271kts
08-Aug-20 13:04 36.387767 -109.198464 226 25371ft 268kts
08-Aug-20 13:05 36.335193 -109.263292 226 25371ft 266kts
08-Aug-20 13:06 36.282810 -109.327753 226 25371ft 265kts
08-Aug-20 13:07 36.230502 -109.391992 226 25371ft 264kts
08-Aug-20 13:08 36.178308 -109.455963 226 25370ft 264kts
08-Aug-20 13:09 36.126256 -109.519631 226 25369ft 264kts
08-Aug-20 13:10 36.074056 -109.583356 226 25369ft 263kts
08-Aug-20 13:11 36.022045 -109.646727 226 25369ft 263kts
08-Aug-20 13:12 35.969717 -109.710352 226 25374ft 264kts
08-Aug-20 13:13 35.917302 -109.773959 226 25374ft 264kts
08-Aug-20 13:14 35.864813 -109.837537 225 25357ft 266kts
08-Aug-20 13:15 35.812025 -109.901350 225 25358ft 267kts
08-Aug-20 13:16 35.758908 -109.965429 225 25339ft 268kts
08-Aug-20 13:17 35.705416 -110.029830 225 25305ft 272kts
08-Aug-20 13:18 35.650966 -110.095241 225 25269ft 275kts
08-Aug-20 13:19 35.596036 -110.161107 225 25232ft 277kts
08-Aug-20 13:20 35.540986 -110.226986 225 25226ft 277kts
08-Aug-20 13:20 35.495110 -110.281788 225 25226ft 276kts
08-Aug-20 13:22 35.430861 -110.358374 225 25226ft 276kts
08-Aug-20 13:23 35.375851 -110.423806 225 25225ft 276kts
08-Aug-20 13:23 35.329824 -110.478458 225 25225ft 276kts
08-Aug-20 13:24 35.274873 -110.543579 225 25224ft 276kts
08-Aug-20 13:26 35.210623 -110.619560 225 25224ft 275kts
08-Aug-20 13:26 35.164665 -110.673797 225 25229ft 276kts
08-Aug-20 13:27 35.109473 -110.738815 225 25228ft 276kts
08-Aug-20 13:28 35.052336 -110.801688 215 25228ft 278kts
08-Aug-20 13:29 34.986237 -110.850666 213 25226ft 279kts
08-Aug-20 13:30 34.919711 -110.899637 213 25226ft 279kts
08-Aug-20 13:31 34.853301 -110.948431 213 25230ft 279kts
08-Aug-20 13:32 34.786917 -110.997110 213 25230ft 280kts
08-Aug-20 13:33 34.720353 -111.045827 212 25229ft 279kts
08-Aug-20 13:34 34.653901 -111.094373 212 25236ft 279kts
08-Aug-20 13:35 34.587534 -111.142760 212 25248ft 278kts
08-Aug-20 13:36 34.521316 -111.190948 212 25254ft 278kts
08-Aug-20 13:37 34.455012 -111.239110 212 25254ft 278kts
08-Aug-20 13:38 34.388726 -111.287168 212 25253ft 278kts
08-Aug-20 13:39 34.322591 -111.335033 212 25253ft 278kts
08-Aug-20 13:40 34.247424 -111.340553 175 25248ft 287kts
08-Aug-20 13:41 34.168400 -111.326221 175 25252ft 288kts
08-Aug-20 13:42 34.089348 -111.311236 175 25252ft 289kts
08-Aug-20 13:43 34.009988 -111.296020 175 25252ft 290kts
08-Aug-20 13:44 33.930039 -111.280706 175 25251ft 291kts
08-Aug-20 13:45 33.850094 -111.265403 175 25191ft 293kts
08-Aug-20 13:46 33.769178 -111.249970 175 25115ft 295kts
08-Aug-20 13:47 33.688246 -111.234556 175 25059ft 296kts
08-Aug-20 13:48 33.607073 -111.219130 175 24991ft 296kts
08-Aug-20 13:49 33.525936 -111.203736 175 24975ft 295kts
08-Aug-20 13:50 33.444915 -111.188396 175 24979ft 295kts
08-Aug-20 13:51 33.363991 -111.173107 175 24979ft 294kts
08-Aug-20 13:52 33.283078 -111.157852 175 24978ft 295kts
08-Aug-20 13:53 33.202191 -111.142635 175 24856ft 296kts
08-Aug-20 13:54 33.119028 -111.127077 174 23981ft 315kts
08-Aug-20 13:55 33.030526 -111.110498 174 22497ft 327kts
08-Aug-20 13:56 32.939637 -111.093502 173 20706ft 334kts
08-Aug-20 13:57 32.847542 -111.076334 172 18457ft 339kts
08-Aug-20 13:58 32.757473 -111.059583 172 16580ft 310kts
08-Aug-20 13:59 32.675260 -111.044336 172 14935ft 293kts
08-Aug-20 14:00 32.595868 -111.023358 165 12833ft 300kts
08-Aug-20 14:01 32.514665 -110.999919 167 10250ft 298kts
08-Aug-20 14:02 32.435649 -110.977481 167 7739ft 289kts
08-Aug-20 14:03 32.361713 -110.956531 167 6143ft 256kts
08-Aug-20 14:04 32.295358 -110.938605 171 4558ft 237kts
08-Aug-20 14:05 32.235948 -110.926758 173 3908ft 192kts
08-Aug-20 14:06 32.194935 -110.914013 145 2965ft 131kts
08-Aug-20 14:07 32.163513 -110.906411 216 3679ft 157kts
08-Aug-20 14:08 32.133459 -110.939889 226 2788ft 134kts
08-Aug-20 14:09 32.123397 -110.951194 132 2648ft 4kts
08-Aug-20 14:10 32.123822 -110.948677 44 2648ft 14kts
08-Aug-20 14:11 32.126279 -110.945815 51 2648ft 8kts
08-Aug-20 14:12 32.125625 -110.945530 312 2648ft 0kts
08-Aug-20 14:13 32.125624 -110.945530 312 2648ft 0kts

Navigation Log

Ident Type
Flight plan parsing failed, navigation log unavailable